createdAt,value
2023-01-22T12:51:43.006Z,35.55
2023-01-22T12:54:22.116Z,28.10
2023-01-22T12:56:50.937Z,31.33
2023-01-22T12:59:32.653Z,28.55
2023-01-22T13:02:01.614Z,26.65
2023-01-22T13:04:30.524Z,28.52
2023-01-22T13:07:07.036Z,30.38
2023-01-22T13:09:37.755Z,29.42
2023-01-22T13:12:26.914Z,31.95
2023-01-22T13:14:55.099Z,28.40
2023-01-22T13:17:25.675Z,25.38
2023-01-22T13:19:53.427Z,27.95
2023-01-22T13:22:25.815Z,31.52
2023-01-22T13:24:55.671Z,27.13
2023-01-22T13:27:26.386Z,27.35
2023-01-22T13:29:54.121Z,25.95
2023-01-22T13:32:23.385Z,31.55
2023-01-22T13:34:51.074Z,32.03
2023-01-22T13:37:23.668Z,25.38
2023-01-22T13:39:51.681Z,29.40
2023-01-22T13:42:19.629Z,28.05
2023-01-22T13:44:50.880Z,30.35
2023-01-22T13:47:28.582Z,27.30
2023-01-22T13:49:56.634Z,30.52
2023-01-22T13:52:26.110Z,31.10
2023-01-22T13:54:59.039Z,22.10
2023-01-22T13:57:26.784Z,27.00
2023-01-22T14:02:47.382Z,24.85
2023-01-22T14:05:18.614Z,31.45
2023-01-22T14:07:47.930Z,27.55
2023-01-22T14:10:18.227Z,27.93
2023-01-22T14:12:46.096Z,23.40
2023-01-22T14:15:18.871Z,28.48
2023-01-22T14:17:48.510Z,25.08
2023-01-22T14:20:17.765Z,28.10
2023-01-22T14:22:47.009Z,22.42
2023-01-22T14:25:14.559Z,27.83
2023-01-22T14:27:44.769Z,28.80
2023-01-22T14:30:15.834Z,25.00
2023-01-22T14:32:43.810Z,27.50
2023-01-22T14:35:17.607Z,27.88
2023-01-22T14:37:47.057Z,24.47
2023-01-22T14:40:17.551Z,26.27
2023-01-22T14:42:46.681Z,31.52
2023-01-22T14:45:16.560Z,27.17
2023-01-22T14:47:44.371Z,27.05
2023-01-22T14:50:12.943Z,23.43
2023-01-22T14:52:40.730Z,28.60
2023-01-22T14:55:10.372Z,32.67
2023-01-22T14:57:38.094Z,31.15
2023-01-22T15:00:07.383Z,31.55
2023-01-22T15:02:37.397Z,30.45
2023-01-22T15:05:05.273Z,25.75
2023-01-22T15:07:34.188Z,29.90
2023-01-22T15:10:02.246Z,30.92
2023-01-22T15:12:31.409Z,29.17
2023-01-22T15:14:59.298Z,32.70
2023-01-22T15:17:26.984Z,32.47
2023-01-22T15:19:54.771Z,30.05
2023-01-22T15:22:22.347Z,26.35
2023-01-22T15:24:49.909Z,34.72
2023-01-22T15:27:19.086Z,29.25
2023-01-22T15:29:48.220Z,32.58
2023-01-22T15:32:15.839Z,25.00
2023-01-22T15:34:43.397Z,29.95
2023-01-22T15:37:13.790Z,31.85
2023-01-22T15:39:41.650Z,35.63
2023-01-22T15:42:09.614Z,28.67
2023-01-22T15:44:37.656Z,30.77
2023-01-22T15:47:06.956Z,34.50
2023-01-22T15:49:34.954Z,27.85
2023-01-22T15:52:02.663Z,32.45
2023-01-22T15:54:30.364Z,34.45
2023-01-22T15:56:58.282Z,36.63
2023-01-22T15:59:25.828Z,28.10
2023-01-22T16:01:53.554Z,32.03
2023-01-22T16:04:22.427Z,30.67
2023-01-22T16:06:51.571Z,33.78
2023-01-22T16:09:19.313Z,30.33
2023-01-22T16:11:46.888Z,40.50
2023-01-22T16:14:14.904Z,28.23
2023-01-22T16:16:42.867Z,33.60
2023-01-22T16:19:13.208Z,33.67
2023-01-22T16:21:43.494Z,32.97
2023-01-22T16:24:11.177Z,33.22
2023-01-22T16:26:38.952Z,30.77
2023-01-22T16:29:07.140Z,34.20
2023-01-22T16:31:36.365Z,36.50
2023-01-22T16:34:09.192Z,35.95
2023-01-22T16:36:37.373Z,30.50
2023-01-22T16:39:06.862Z,32.15
2023-01-22T16:41:35.736Z,38.70
2023-01-22T16:44:07.838Z,33.08
2023-01-22T16:46:39.714Z,34.20
2023-01-22T16:49:09.047Z,32.63
2023-01-22T16:51:38.706Z,34.05
2023-01-22T16:54:08.645Z,27.45
2023-01-22T16:56:36.515Z,26.95
2023-01-22T16:59:04.153Z,31.27
2023-01-22T17:01:32.144Z,40.45
2023-01-22T17:03:59.714Z,28.70
2023-01-22T17:06:28.825Z,33.07
2023-01-22T17:08:56.636Z,29.83
2023-01-22T17:11:25.910Z,30.75
2023-01-22T17:13:56.148Z,34.55
2023-01-22T17:16:24.155Z,31.95
2023-01-22T17:18:51.990Z,29.30
2023-01-22T17:21:20.241Z,37.13
2023-01-22T17:23:48.161Z,33.85
2023-01-22T17:26:16.816Z,41.28
2023-01-22T17:28:46.357Z,33.45
2023-01-22T17:31:19.020Z,35.77
2023-01-22T17:33:47.006Z,35.10
2023-01-22T17:36:16.901Z,33.45
2023-01-22T17:38:44.512Z,39.42
2023-01-22T17:41:16.961Z,35.08
2023-01-22T17:43:47.560Z,34.53
2023-01-22T17:46:16.768Z,34.05
2023-01-22T17:48:45.238Z,38.05
2023-01-22T17:51:14.402Z,37.67
2023-01-22T17:53:47.249Z,40.35
2023-01-22T17:56:16.437Z,41.22
2023-01-22T17:58:58.184Z,51.05
2023-01-22T18:01:30.004Z,41.33
2023-01-22T18:03:58.380Z,41.40
2023-01-22T18:06:25.945Z,42.00
2023-01-22T18:08:53.692Z,40.80
2023-01-22T18:11:24.122Z,42.90
2023-01-22T18:13:55.597Z,39.92
2023-01-22T18:16:24.117Z,43.28
2023-01-22T18:18:53.028Z,40.70
2023-01-22T18:21:22.054Z,42.13
2023-01-22T18:23:50.034Z,42.33
2023-01-22T18:26:22.839Z,48.40
2023-01-22T18:28:50.703Z,50.20
2023-01-22T18:31:22.498Z,47.13
2023-01-22T18:33:51.079Z,43.90
2023-01-22T18:36:20.374Z,49.40
2023-01-22T18:38:48.504Z,40.73
2023-01-22T18:41:18.772Z,48.40
2023-01-22T18:43:48.332Z,46.88
2023-01-22T18:46:16.844Z,50.22
2023-01-22T18:48:46.017Z,45.67
2023-01-22T18:51:14.249Z,43.63
2023-01-22T18:53:42.693Z,44.58
2023-01-22T18:56:11.968Z,45.92
2023-01-22T18:58:42.438Z,51.70
2023-01-22T19:01:12.714Z,54.03
2023-01-22T19:03:41.437Z,49.30
2023-01-22T19:06:14.499Z,49.78
2023-01-22T19:08:43.537Z,46.35
2023-01-22T19:11:12.226Z,52.83
2023-01-22T19:13:40.462Z,49.83
2023-01-22T19:16:10.874Z,53.20
2023-01-22T19:18:39.985Z,50.33
2023-01-22T19:21:11.241Z,58.80
2023-01-22T19:23:38.951Z,43.47
2023-01-22T19:26:08.387Z,44.03
2023-01-22T19:28:35.992Z,47.42
2023-01-22T19:31:03.651Z,44.30
2023-01-22T19:33:31.464Z,45.35
2023-01-22T19:35:59.252Z,40.30
2023-01-22T19:38:28.635Z,48.38
2023-01-22T19:40:56.164Z,51.88
2023-01-22T19:43:23.833Z,41.65
2023-01-22T19:45:51.415Z,38.80
2023-01-22T19:48:20.239Z,43.38
2023-01-22T19:50:47.897Z,43.27
2023-01-22T19:53:15.637Z,36.30
2023-01-22T19:55:44.966Z,40.33
2023-01-22T19:58:12.810Z,55.92
2023-01-22T20:00:40.897Z,48.77
2023-01-22T20:03:09.529Z,51.90
